sensor_id;sensor_type;location;lat;lon;timestamp;temperature;humidity
9537;DHT22;4807;48.024;11.726;2022-10-18T00:02:46;9.50;99.90
9537;DHT22;4807;48.024;11.726;2022-10-18T00:05:55;9.50;99.90
9537;DHT22;4807;48.024;11.726;2022-10-18T00:09:16;9.50;99.90
9537;DHT22;4807;48.024;11.726;2022-10-18T00:12:32;9.70;99.90
9537;DHT22;4807;48.024;11.726;2022-10-18T00:15:53;9.70;99.90
9537;DHT22;4807;48.024;11.726;2022-10-18T00:19:08;9.90;99.90
9537;DHT22;4807;48.024;11.726;2022-10-18T00:22:16;9.80;99.90
9537;DHT22;4807;48.024;11.726;2022-10-18T00:25:26;9.60;99.90
9537;DHT22;4807;48.024;11.726;2022-10-18T00:28:35;9.60;99.90
9537;DHT22;4807;48.024;11.726;2022-10-18T00:31:45;9.70;99.90
9537;DHT22;4807;48.024;11.726;2022-10-18T00:34:54;9.70;99.90
9537;DHT22;4807;48.024;11.726;2022-10-18T00:38:03;9.80;99.90
9537;DHT22;4807;48.024;11.726;2022-10-18T00:41:15;10.00;99.90
9537;DHT22;4807;48.024;11.726;2022-10-18T00:45:00;10.00;99.90
9537;DHT22;4807;48.024;11.726;2022-10-18T00:48:21;9.70;99.90
9537;DHT22;4807;48.024;11.726;2022-10-18T00:51:36;9.30;99.90
9537;DHT22;4807;48.024;11.726;2022-10-18T00:54:51;9.30;99.90
9537;DHT22;4807;48.024;11.726;2022-10-18T00:58:03;9.10;99.90
9537;DHT22;4807;48.024;11.726;2022-10-18T01:01:13;10.20;99.90
9537;DHT22;4807;48.024;11.726;2022-10-18T01:04:21;8.90;99.90
9537;DHT22;4807;48.024;11.726;2022-10-18T01:07:40;8.70;99.90
9537;DHT22;4807;48.024;11.726;2022-10-18T01:11:20;8.60;99.90
9537;DHT22;4807;48.024;11.726;2022-10-18T01:20:00;7.00;99.90
9537;DHT22;4807;48.024;11.726;2022-10-18T01:23:25;8.70;99.90
9537;DHT22;4807;48.024;11.726;2022-10-18T01:27:19;8.60;99.90
9537;DHT22;4807;48.024;11.726;2022-10-18T01:30:42;8.60;99.90
9537;DHT22;4807;48.024;11.726;2022-10-18T01:33:57;8.50;99.90
9537;DHT22;4807;48.024;11.726;2022-10-18T01:37:13;8.60;99.90
9537;DHT22;4807;48.024;11.726;2022-10-18T01:40:23;8.60;99.90
9537;DHT22;4807;48.024;11.726;2022-10-18T01:43:32;8.60;99.90
9537;DHT22;4807;48.024;11.726;2022-10-18T01:46:46;8.60;99.90
9537;DHT22;4807;48.024;11.726;2022-10-18T01:49:58;8.70;99.90
9537;DHT22;4807;48.024;11.726;2022-10-18T01:53:24;8.70;99.90
9537;DHT22;4807;48.024;11.726;2022-10-18T01:56:41;8.60;99.90
9537;DHT22;4807;48.024;11.726;2022-10-18T02:00:00;8.60;99.90
9537;DHT22;4807;48.024;11.726;2022-10-18T02:03:23;8.60;99.90
9537;DHT22;4807;48.024;11.726;2022-10-18T02:06:37;8.50;99.90
9537;DHT22;4807;48.024;11.726;2022-10-18T02:09:54;8.50;99.90
9537;DHT22;4807;48.024;11.726;2022-10-18T02:13:12;8.50;99.90
9537;DHT22;4807;48.024;11.726;2022-10-18T02:16:24;8.60;99.90
9537;DHT22;4807;48.024;11.726;2022-10-18T02:19:41;8.40;99.90
9537;DHT22;4807;48.024;11.726;2022-10-18T02:22:54;8.40;99.90
9537;DHT22;4807;48.024;11.726;2022-10-18T02:26:04;8.30;99.90
9537;DHT22;4807;48.024;11.726;2022-10-18T02:29:13;8.30;99.90
9537;DHT22;4807;48.024;11.726;2022-10-18T02:32:26;8.30;99.90
9537;DHT22;4807;48.024;11.726;2022-10-18T02:35:44;8.30;99.90
9537;DHT22;4807;48.024;11.726;2022-10-18T02:39:02;8.20;99.90
9537;DHT22;4807;48.024;11.726;2022-10-18T02:42:14;8.10;99.90
9537;DHT22;4807;48.024;11.726;2022-10-18T02:45:23;8.20;99.90
9537;DHT22;4807;48.024;11.726;2022-10-18T02:48:33;8.10;99.90
9537;DHT22;4807;48.024;11.726;2022-10-18T02:51:44;7.90;99.90
9537;DHT22;4807;48.024;11.726;2022-10-18T02:54:52;7.90;99.90
9537;DHT22;4807;48.024;11.726;2022-10-18T02:58:00;7.80;99.90
9537;DHT22;4807;48.024;11.726;2022-10-18T03:01:09;7.80;99.90
9537;DHT22;4807;48.024;11.726;2022-10-18T03:04:17;7.90;99.90
9537;DHT22;4807;48.024;11.726;2022-10-18T03:07:27;7.90;99.90
9537;DHT22;4807;48.024;11.726;2022-10-18T03:10:36;7.90;99.90
9537;DHT22;4807;48.024;11.726;2022-10-18T03:13:44;7.90;99.90
9537;DHT22;4807;48.024;11.726;2022-10-18T03:16:52;8.00;99.90
9537;DHT22;4807;48.024;11.726;2022-10-18T03:20:01;8.00;99.90
9537;DHT22;4807;48.024;11.726;2022-10-18T03:23:10;8.00;99.90
9537;DHT22;4807;48.024;11.726;2022-10-18T03:26:19;8.10;99.90
9537;DHT22;4807;48.024;11.726;2022-10-18T03:29:34;7.90;99.90
9537;DHT22;4807;48.024;11.726;2022-10-18T03:32:46;7.90;99.90
9537;DHT22;4807;48.024;11.726;2022-10-18T03:35:55;7.80;99.90
9537;DHT22;4807;48.024;11.726;2022-10-18T03:39:04;7.90;99.90
9537;DHT22;4807;48.024;11.726;2022-10-18T03:42:13;7.80;99.90
9537;DHT22;4807;48.024;11.726;2022-10-18T03:45:21;7.80;99.90
9537;DHT22;4807;48.024;11.726;2022-10-18T03:48:36;7.60;99.90
9537;DHT22;4807;48.024;11.726;2022-10-18T03:51:44;7.60;99.90
9537;DHT22;4807;48.024;11.726;2022-10-18T03:54:54;7.80;99.90
9537;DHT22;4807;48.024;11.726;2022-10-18T03:58:09;7.80;99.90
9537;DHT22;4807;48.024;11.726;2022-10-18T04:01:36;4.80;99.90
9537;DHT22;4807;48.024;11.726;2022-10-18T04:05:13;7.60;99.90
9537;DHT22;4807;48.024;11.726;2022-10-18T04:08:54;7.50;99.90
9537;DHT22;4807;48.024;11.726;2022-10-18T04:12:29;7.50;99.90
9537;DHT22;4807;48.024;11.726;2022-10-18T04:15:39;7.60;99.90
9537;DHT22;4807;48.024;11.726;2022-10-18T04:18:47;7.50;99.90
9537;DHT22;4807;48.024;11.726;2022-10-18T04:21:56;7.60;99.90
9537;DHT22;4807;48.024;11.726;2022-10-18T04:25:04;7.70;99.90
9537;DHT22;4807;48.024;11.726;2022-10-18T04:28:14;7.80;99.90
9537;DHT22;4807;48.024;11.726;2022-10-18T04:31:23;7.80;99.90
9537;DHT22;4807;48.024;11.726;2022-10-18T04:34:31;7.80;99.90
9537;DHT22;4807;48.024;11.726;2022-10-18T04:37:39;7.80;99.90
9537;DHT22;4807;48.024;11.726;2022-10-18T04:40:48;7.70;99.90
9537;DHT22;4807;48.024;11.726;2022-10-18T04:43:57;7.60;99.90
9537;DHT22;4807;48.024;11.726;2022-10-18T04:47:06;7.70;99.90
9537;DHT22;4807;48.024;11.726;2022-10-18T04:50:14;7.60;99.90
9537;DHT22;4807;48.024;11.726;2022-10-18T04:53:23;7.60;99.90
9537;DHT22;4807;48.024;11.726;2022-10-18T04:56:31;7.50;99.90
9537;DHT22;4807;48.024;11.726;2022-10-18T04:59:41;7.50;99.90
9537;DHT22;4807;48.024;11.726;2022-10-18T05:02:49;7.50;99.90
9537;DHT22;4807;48.024;11.726;2022-10-18T05:06:02;7.50;99.90
9537;DHT22;4807;48.024;11.726;2022-10-18T05:09:11;7.60;99.90
9537;DHT22;4807;48.024;11.726;2022-10-18T05:12:19;7.50;99.90
9537;DHT22;4807;48.024;11.726;2022-10-18T05:15:29;7.50;99.90
9537;DHT22;4807;48.024;11.726;2022-10-18T05:18:37;7.60;99.90
9537;DHT22;4807;48.024;11.726;2022-10-18T05:21:46;7.60;99.90
9537;DHT22;4807;48.024;11.726;2022-10-18T05:24:54;7.60;99.90
9537;DHT22;4807;48.024;11.726;2022-10-18T05:28:02;7.70;99.90
9537;DHT22;4807;48.024;11.726;2022-10-18T05:31:23;7.90;99.90
9537;DHT22;4807;48.024;11.726;2022-10-18T05:34:31;7.90;99.90
9537;DHT22;4807;48.024;11.726;2022-10-18T05:37:39;7.90;99.90
9537;DHT22;4807;48.024;11.726;2022-10-18T05:40:48;8.00;99.90
9537;DHT22;4807;48.024;11.726;2022-10-18T05:43:56;8.00;99.90
9537;DHT22;4807;48.024;11.726;2022-10-18T05:47:06;8.10;99.90
9537;DHT22;4807;48.024;11.726;2022-10-18T05:50:14;8.30;99.90
9537;DHT22;4807;48.024;11.726;2022-10-18T05:53:22;8.40;99.90
9537;DHT22;4807;48.024;11.726;2022-10-18T05:56:42;8.60;99.90
9537;DHT22;4807;48.024;11.726;2022-10-18T05:59:51;9.50;99.90
9537;DHT22;4807;48.024;11.726;2022-10-18T06:03:00;8.90;99.90
9537;DHT22;4807;48.024;11.726;2022-10-18T06:06:10;9.20;99.90
9537;DHT22;4807;48.024;11.726;2022-10-18T06:09:19;9.40;99.90
9537;DHT22;4807;48.024;11.726;2022-10-18T06:12:27;9.60;99.90
9537;DHT22;4807;48.024;11.726;2022-10-18T06:15:36;9.70;99.90
9537;DHT22;4807;48.024;11.726;2022-10-18T06:18:52;9.80;99.90
9537;DHT22;4807;48.024;11.726;2022-10-18T06:22:02;9.90;99.90
9537;DHT22;4807;48.024;11.726;2022-10-18T06:25:11;10.20;99.90
9537;DHT22;4807;48.024;11.726;2022-10-18T06:28:19;10.80;99.90
9537;DHT22;4807;48.024;11.726;2022-10-18T06:31:27;10.80;99.90
9537;DHT22;4807;48.024;11.726;2022-10-18T06:34:39;11.20;99.90
9537;DHT22;4807;48.024;11.726;2022-10-18T06:37:48;11.60;99.90
9537;DHT22;4807;48.024;11.726;2022-10-18T06:40:58;11.90;99.90
9537;DHT22;4807;48.024;11.726;2022-10-18T06:44:08;12.30;99.90
9537;DHT22;4807;48.024;11.726;2022-10-18T06:47:20;12.70;99.90
9537;DHT22;4807;48.024;11.726;2022-10-18T06:50:29;13.10;99.90
9537;DHT22;4807;48.024;11.726;2022-10-18T06:53:39;13.10;99.90
9537;DHT22;4807;48.024;11.726;2022-10-18T06:57:13;13.00;99.90
9537;DHT22;4807;48.024;11.726;2022-10-18T07:00:22;13.10;99.90
9537;DHT22;4807;48.024;11.726;2022-10-18T07:03:37;13.20;99.90
9537;DHT22;4807;48.024;11.726;2022-10-18T07:06:53;13.20;99.90
9537;DHT22;4807;48.024;11.726;2022-10-18T07:10:01;13.20;99.90
9537;DHT22;4807;48.024;11.726;2022-10-18T07:13:10;13.20;99.90
9537;DHT22;4807;48.024;11.726;2022-10-18T07:16:39;13.00;99.90
9537;DHT22;4807;48.024;11.726;2022-10-18T07:19:52;13.20;99.90
9537;DHT22;4807;48.024;11.726;2022-10-18T07:23:02;13.30;99.90
9537;DHT22;4807;48.024;11.726;2022-10-18T07:26:16;13.40;99.90
9537;DHT22;4807;48.024;11.726;2022-10-18T07:29:29;13.80;99.90
9537;DHT22;4807;48.024;11.726;2022-10-18T07:32:38;13.80;99.90
9537;DHT22;4807;48.024;11.726;2022-10-18T07:35:50;14.10;99.90
9537;DHT22;4807;48.024;11.726;2022-10-18T07:42:18;14.20;99.90
9537;DHT22;4807;48.024;11.726;2022-10-18T07:45:26;14.50;99.90
9537;DHT22;4807;48.024;11.726;2022-10-18T07:48:35;14.90;99.90
9537;DHT22;4807;48.024;11.726;2022-10-18T07:51:43;15.20;99.90
9537;DHT22;4807;48.024;11.726;2022-10-18T07:54:52;15.50;99.90
9537;DHT22;4807;48.024;11.726;2022-10-18T07:58:01;15.70;99.90
9537;DHT22;4807;48.024;11.726;2022-10-18T08:01:10;15.90;99.90
9537;DHT22;4807;48.024;11.726;2022-10-18T08:04:19;16.20;99.90
9537;DHT22;4807;48.024;11.726;2022-10-18T08:07:28;16.30;99.90
9537;DHT22;4807;48.024;11.726;2022-10-18T08:10:38;16.40;99.90
9537;DHT22;4807;48.024;11.726;2022-10-18T08:13:47;16.50;99.90
9537;DHT22;4807;48.024;11.726;2022-10-18T08:16:55;16.50;99.90
9537;DHT22;4807;48.024;11.726;2022-10-18T08:20:04;16.50;99.90
9537;DHT22;4807;48.024;11.726;2022-10-18T08:23:24;16.50;99.90
9537;DHT22;4807;48.024;11.726;2022-10-18T08:26:34;16.50;99.90
9537;DHT22;4807;48.024;11.726;2022-10-18T08:29:44;16.50;99.90
9537;DHT22;4807;48.024;11.726;2022-10-18T08:33:00;16.40;99.90
9537;DHT22;4807;48.024;11.726;2022-10-18T08:36:11;16.30;99.90
9537;DHT22;4807;48.024;11.726;2022-10-18T08:39:21;16.50;99.90
9537;DHT22;4807;48.024;11.726;2022-10-18T08:46:11;16.90;99.90
9537;DHT22;4807;48.024;11.726;2022-10-18T08:49:26;17.00;99.90
9537;DHT22;4807;48.024;11.726;2022-10-18T08:52:44;17.00;99.90
9537;DHT22;4807;48.024;11.726;2022-10-18T08:56:02;17.00;99.90
9537;DHT22;4807;48.024;11.726;2022-10-18T08:59:18;17.00;99.90
9537;DHT22;4807;48.024;11.726;2022-10-18T09:02:38;17.20;99.90
9537;DHT22;4807;48.024;11.726;2022-10-18T09:05:55;17.40;99.90
9537;DHT22;4807;48.024;11.726;2022-10-18T09:09:24;17.70;99.90
9537;DHT22;4807;48.024;11.726;2022-10-18T09:12:54;17.80;99.90
9537;DHT22;4807;48.024;11.726;2022-10-18T09:16:20;18.00;99.90
9537;DHT22;4807;48.024;11.726;2022-10-18T09:19:46;18.20;99.90
9537;DHT22;4807;48.024;11.726;2022-10-18T09:23:05;18.30;99.90
9537;DHT22;4807;48.024;11.726;2022-10-18T09:26:23;18.40;99.40
9537;DHT22;4807;48.024;11.726;2022-10-18T09:29:47;18.40;99.80
9537;DHT22;4807;48.024;11.726;2022-10-18T09:33:26;18.60;99.90
9537;DHT22;4807;48.024;11.726;2022-10-18T09:36:43;18.80;99.60
9537;DHT22;4807;48.024;11.726;2022-10-18T09:43:35;19.00;99.10
9537;DHT22;4807;48.024;11.726;2022-10-18T09:46:54;19.20;99.50
9537;DHT22;4807;48.024;11.726;2022-10-18T09:50:15;19.40;98.30
9537;DHT22;4807;48.024;11.726;2022-10-18T09:53:38;19.50;97.80
9537;DHT22;4807;48.024;11.726;2022-10-18T09:57:01;19.80;98.00
9537;DHT22;4807;48.024;11.726;2022-10-18T10:00:23;20.10;97.50
9537;DHT22;4807;48.024;11.726;2022-10-18T10:03:38;20.50;97.60
9537;DHT22;4807;48.024;11.726;2022-10-18T10:06:51;21.00;95.50
9537;DHT22;4807;48.024;11.726;2022-10-18T10:10:06;21.40;96.00
9537;DHT22;4807;48.024;11.726;2022-10-18T10:13:24;21.70;94.70
9537;DHT22;4807;48.024;11.726;2022-10-18T10:16:42;21.60;95.10
9537;DHT22;4807;48.024;11.726;2022-10-18T10:19:59;21.20;94.70
9537;DHT22;4807;48.024;11.726;2022-10-18T10:23:24;20.80;95.10
9537;DHT22;4807;48.024;11.726;2022-10-18T10:26:36;20.90;96.70
9537;DHT22;4807;48.024;11.726;2022-10-18T10:29:56;21.00;95.80
9537;DHT22;4807;48.024;11.726;2022-10-18T10:33:31;21.00;95.80
9537;DHT22;4807;48.024;11.726;2022-10-18T10:36:46;20.90;95.30
9537;DHT22;4807;48.024;11.726;2022-10-18T10:40:14;20.90;95.90
9537;DHT22;4807;48.024;11.726;2022-10-18T10:43:30;20.80;95.30
9537;DHT22;4807;48.024;11.726;2022-10-18T10:46:47;20.60;96.10
9537;DHT22;4807;48.024;11.726;2022-10-18T10:49:57;20.60;97.10
9537;DHT22;4807;48.024;11.726;2022-10-18T10:53:05;20.50;95.90
9537;DHT22;4807;48.024;11.726;2022-10-18T10:56:37;20.30;96.80
9537;DHT22;4807;48.024;11.726;2022-10-18T11:00:00;20.30;96.10
9537;DHT22;4807;48.024;11.726;2022-10-18T11:03:13;20.50;95.70
9537;DHT22;4807;48.024;11.726;2022-10-18T11:06:55;20.50;96.20
9537;DHT22;4807;48.024;11.726;2022-10-18T11:10:13;20.70;96.60
9537;DHT22;4807;48.024;11.726;2022-10-18T11:13:39;20.80;96.40
9537;DHT22;4807;48.024;11.726;2022-10-18T11:17:16;20.80;95.60
9537;DHT22;4807;48.024;11.726;2022-10-18T11:20:34;20.90;96.70
9537;DHT22;4807;48.024;11.726;2022-10-18T11:23:46;20.80;95.20
9537;DHT22;4807;48.024;11.726;2022-10-18T11:26:58;20.80;96.20
9537;DHT22;4807;48.024;11.726;2022-10-18T11:30:32;20.90;95.50
9537;DHT22;4807;48.024;11.726;2022-10-18T11:34:03;21.10;96.20
9537;DHT22;4807;48.024;11.726;2022-10-18T11:37:43;21.30;95.20
9537;DHT22;4807;48.024;11.726;2022-10-18T11:41:26;21.50;95.20
9537;DHT22;4807;48.024;11.726;2022-10-18T11:44:42;21.50;95.30
9537;DHT22;4807;48.024;11.726;2022-10-18T11:48:07;21.50;94.30
9537;DHT22;4807;48.024;11.726;2022-10-18T11:51:38;21.50;94.30
9537;DHT22;4807;48.024;11.726;2022-10-18T11:55:30;21.40;93.90
9537;DHT22;4807;48.024;11.726;2022-10-18T11:59:01;21.50;95.80
9537;DHT22;4807;48.024;11.726;2022-10-18T12:02:46;21.40;93.50
9537;DHT22;4807;48.024;11.726;2022-10-18T12:06:13;21.40;93.50
9537;DHT22;4807;48.024;11.726;2022-10-18T12:09:29;21.40;94.10
9537;DHT22;4807;48.024;11.726;2022-10-18T12:12:44;21.30;93.90
9537;DHT22;4807;48.024;11.726;2022-10-18T12:15:58;21.40;94.30
9537;DHT22;4807;48.024;11.726;2022-10-18T12:19:14;21.50;93.60
9537;DHT22;4807;48.024;11.726;2022-10-18T12:22:35;21.50;94.00
9537;DHT22;4807;48.024;11.726;2022-10-18T12:25:51;21.50;94.30
9537;DHT22;4807;48.024;11.726;2022-10-18T12:29:11;21.40;94.90
9537;DHT22;4807;48.024;11.726;2022-10-18T12:32:32;21.30;95.00
9537;DHT22;4807;48.024;11.726;2022-10-18T12:35:49;21.40;94.70
9537;DHT22;4807;48.024;11.726;2022-10-18T12:39:13;21.40;94.60
9537;DHT22;4807;48.024;11.726;2022-10-18T12:42:46;21.50;94.30
9537;DHT22;4807;48.024;11.726;2022-10-18T12:45:58;21.50;93.90
9537;DHT22;4807;48.024;11.726;2022-10-18T12:49:10;21.60;93.50
9537;DHT22;4807;48.024;11.726;2022-10-18T12:52:23;21.60;92.80
9537;DHT22;4807;48.024;11.726;2022-10-18T12:55:36;21.60;93.20
9537;DHT22;4807;48.024;11.726;2022-10-18T12:58:46;21.60;93.20
9537;DHT22;4807;48.024;11.726;2022-10-18T13:02:27;21.60;93.40
9537;DHT22;4807;48.024;11.726;2022-10-18T13:05:56;21.60;92.50
9537;DHT22;4807;48.024;11.726;2022-10-18T13:09:19;21.60;94.20
9537;DHT22;4807;48.024;11.726;2022-10-18T13:12:59;21.50;93.60
9537;DHT22;4807;48.024;11.726;2022-10-18T13:16:48;21.50;93.60
9537;DHT22;4807;48.024;11.726;2022-10-18T13:20:19;21.50;93.60
9537;DHT22;4807;48.024;11.726;2022-10-18T13:23:41;21.60;93.20
9537;DHT22;4807;48.024;11.726;2022-10-18T13:27:27;21.50;93.40
9537;DHT22;4807;48.024;11.726;2022-10-18T13:30:50;21.50;94.00
9537;DHT22;4807;48.024;11.726;2022-10-18T13:34:24;21.50;93.80
9537;DHT22;4807;48.024;11.726;2022-10-18T13:37:35;21.50;93.70
9537;DHT22;4807;48.024;11.726;2022-10-18T13:40:44;21.50;94.00
9537;DHT22;4807;48.024;11.726;2022-10-18T13:44:23;21.50;94.20
9537;DHT22;4807;48.024;11.726;2022-10-18T13:47:36;21.60;93.40
9537;DHT22;4807;48.024;11.726;2022-10-18T13:50:46;21.70;93.70
9537;DHT22;4807;48.024;11.726;2022-10-18T13:54:02;21.70;94.20
9537;DHT22;4807;48.024;11.726;2022-10-18T13:57:32;21.40;94.40
9537;DHT22;4807;48.024;11.726;2022-10-18T14:01:00;21.40;95.00
9537;DHT22;4807;48.024;11.726;2022-10-18T14:04:38;21.30;95.20
9537;DHT22;4807;48.024;11.726;2022-10-18T14:08:02;21.20;94.80
9537;DHT22;4807;48.024;11.726;2022-10-18T14:11:23;21.30;95.00
9537;DHT22;4807;48.024;11.726;2022-10-18T14:14:41;21.30;94.80
9537;DHT22;4807;48.024;11.726;2022-10-18T14:17:55;21.40;94.90
9537;DHT22;4807;48.024;11.726;2022-10-18T14:21:17;21.50;94.60
9537;DHT22;4807;48.024;11.726;2022-10-18T14:24:38;21.50;94.40
9537;DHT22;4807;48.024;11.726;2022-10-18T14:28:05;21.40;94.60
9537;DHT22;4807;48.024;11.726;2022-10-18T14:31:18;21.40;94.40
9537;DHT22;4807;48.024;11.726;2022-10-18T14:34:27;21.30;94.50
9537;DHT22;4807;48.024;11.726;2022-10-18T14:37:37;21.30;94.70
9537;DHT22;4807;48.024;11.726;2022-10-18T14:40:49;21.00;94.70
9537;DHT22;4807;48.024;11.726;2022-10-18T14:44:17;21.20;94.80
9537;DHT22;4807;48.024;11.726;2022-10-18T14:47:28;21.10;94.40
9537;DHT22;4807;48.024;11.726;2022-10-18T14:50:37;20.90;95.00
9537;DHT22;4807;48.024;11.726;2022-10-18T14:53:47;20.80;95.10
9537;DHT22;4807;48.024;11.726;2022-10-18T14:56:58;20.80;95.70
9537;DHT22;4807;48.024;11.726;2022-10-18T15:00:12;20.70;95.40
9537;DHT22;4807;48.024;11.726;2022-10-18T15:03:31;20.60;95.80
9537;DHT22;4807;48.024;11.726;2022-10-18T15:06:43;20.50;95.70
9537;DHT22;4807;48.024;11.726;2022-10-18T15:09:53;20.40;95.60
9537;DHT22;4807;48.024;11.726;2022-10-18T15:13:05;20.30;95.80
9537;DHT22;4807;48.024;11.726;2022-10-18T15:16:17;20.30;96.00
9537;DHT22;4807;48.024;11.726;2022-10-18T15:19:29;20.30;96.50
9537;DHT22;4807;48.024;11.726;2022-10-18T15:22:39;20.10;96.70
9537;DHT22;4807;48.024;11.726;2022-10-18T15:25:49;20.10;96.80
9537;DHT22;4807;48.024;11.726;2022-10-18T15:28:58;20.10;96.90
9537;DHT22;4807;48.024;11.726;2022-10-18T15:32:16;20.10;97.10
9537;DHT22;4807;48.024;11.726;2022-10-18T15:35:30;20.00;97.00
9537;DHT22;4807;48.024;11.726;2022-10-18T15:38:40;19.80;97.50
9537;DHT22;4807;48.024;11.726;2022-10-18T15:41:58;19.70;97.80
9537;DHT22;4807;48.024;11.726;2022-10-18T15:45:31;19.60;97.70
9537;DHT22;4807;48.024;11.726;2022-10-18T15:48:41;19.60;98.10
9537;DHT22;4807;48.024;11.726;2022-10-18T15:55:47;19.40;98.40
9537;DHT22;4807;48.024;11.726;2022-10-18T15:59:01;19.30;98.80
9537;DHT22;4807;48.024;11.726;2022-10-18T16:02:12;19.30;99.50
9537;DHT22;4807;48.024;11.726;2022-10-18T16:05:21;19.10;99.40
9537;DHT22;4807;48.024;11.726;2022-10-18T16:08:37;18.80;99.50
9537;DHT22;4807;48.024;11.726;2022-10-18T16:11:48;18.80;99.80
9537;DHT22;4807;48.024;11.726;2022-10-18T16:15:05;18.70;99.90
9537;DHT22;4807;48.024;11.726;2022-10-18T16:18:17;18.40;99.60
9537;DHT22;4807;48.024;11.726;2022-10-18T16:21:29;18.40;99.90
9537;DHT22;4807;48.024;11.726;2022-10-18T16:24:39;18.40;99.90
9537;DHT22;4807;48.024;11.726;2022-10-18T16:27:49;18.40;99.90
9537;DHT22;4807;48.024;11.726;2022-10-18T16:31:00;18.20;99.90
9537;DHT22;4807;48.024;11.726;2022-10-18T16:34:10;18.10;99.90
9537;DHT22;4807;48.024;11.726;2022-10-18T16:37:20;18.10;99.90
9537;DHT22;4807;48.024;11.726;2022-10-18T16:40:28;17.90;99.90
9537;DHT22;4807;48.024;11.726;2022-10-18T16:43:37;17.90;99.90
9537;DHT22;4807;48.024;11.726;2022-10-18T16:46:47;17.90;99.90
9537;DHT22;4807;48.024;11.726;2022-10-18T16:49:59;17.90;99.90
9537;DHT22;4807;48.024;11.726;2022-10-18T16:53:12;17.80;99.90
9537;DHT22;4807;48.024;11.726;2022-10-18T16:56:24;17.90;99.90
9537;DHT22;4807;48.024;11.726;2022-10-18T16:59:34;17.90;99.90
9537;DHT22;4807;48.024;11.726;2022-10-18T17:02:43;17.90;99.90
9537;DHT22;4807;48.024;11.726;2022-10-18T17:05:52;17.80;99.90
9537;DHT22;4807;48.024;11.726;2022-10-18T17:09:02;17.80;99.90
9537;DHT22;4807;48.024;11.726;2022-10-18T17:12:10;17.90;99.90
9537;DHT22;4807;48.024;11.726;2022-10-18T17:15:19;18.00;99.90
9537;DHT22;4807;48.024;11.726;2022-10-18T17:18:29;17.90;99.90
9537;DHT22;4807;48.024;11.726;2022-10-18T17:21:38;17.80;99.90
9537;DHT22;4807;48.024;11.726;2022-10-18T17:24:47;17.60;99.90
9537;DHT22;4807;48.024;11.726;2022-10-18T17:27:55;17.40;99.90
9537;DHT22;4807;48.024;11.726;2022-10-18T17:31:05;17.30;99.90
9537;DHT22;4807;48.024;11.726;2022-10-18T17:34:15;17.20;99.90
9537;DHT22;4807;48.024;11.726;2022-10-18T17:37:27;17.00;99.90
9537;DHT22;4807;48.024;11.726;2022-10-18T17:40:38;16.90;99.90
9537;DHT22;4807;48.024;11.726;2022-10-18T17:43:47;16.70;99.90
9537;DHT22;4807;48.024;11.726;2022-10-18T17:46:56;16.90;99.90
9537;DHT22;4807;48.024;11.726;2022-10-18T17:50:06;16.70;99.90
9537;DHT22;4807;48.024;11.726;2022-10-18T17:53:14;16.40;99.90
9537;DHT22;4807;48.024;11.726;2022-10-18T17:56:28;16.30;99.90
9537;DHT22;4807;48.024;11.726;2022-10-18T17:59:39;16.10;99.90
9537;DHT22;4807;48.024;11.726;2022-10-18T18:02:47;16.00;99.90
9537;DHT22;4807;48.024;11.726;2022-10-18T18:05:57;15.90;99.90
9537;DHT22;4807;48.024;11.726;2022-10-18T18:09:07;15.80;99.90
9537;DHT22;4807;48.024;11.726;2022-10-18T18:12:17;15.80;99.90
9537;DHT22;4807;48.024;11.726;2022-10-18T18:15:25;15.80;99.90
9537;DHT22;4807;48.024;11.726;2022-10-18T18:18:34;14.80;99.90
9537;DHT22;4807;48.024;11.726;2022-10-18T18:21:44;15.90;99.90
9537;DHT22;4807;48.024;11.726;2022-10-18T18:24:53;16.10;99.90
9537;DHT22;4807;48.024;11.726;2022-10-18T18:28:01;16.00;99.90
9537;DHT22;4807;48.024;11.726;2022-10-18T18:31:15;15.80;99.90
9537;DHT22;4807;48.024;11.726;2022-10-18T18:34:25;15.70;99.90
9537;DHT22;4807;48.024;11.726;2022-10-18T18:37:35;15.50;99.90
9537;DHT22;4807;48.024;11.726;2022-10-18T18:40:44;15.50;99.90
9537;DHT22;4807;48.024;11.726;2022-10-18T18:43:54;15.50;99.90
9537;DHT22;4807;48.024;11.726;2022-10-18T18:47:03;15.60;99.90
9537;DHT22;4807;48.024;11.726;2022-10-18T18:50:18;15.60;99.90
9537;DHT22;4807;48.024;11.726;2022-10-18T18:53:28;16.70;99.90
9537;DHT22;4807;48.024;11.726;2022-10-18T18:56:38;16.70;99.90
9537;DHT22;4807;48.024;11.726;2022-10-18T18:59:47;15.70;99.90
9537;DHT22;4807;48.024;11.726;2022-10-18T19:02:55;15.60;99.90
9537;DHT22;4807;48.024;11.726;2022-10-18T19:06:05;15.50;99.90
9537;DHT22;4807;48.024;11.726;2022-10-18T19:09:17;15.70;99.90
9537;DHT22;4807;48.024;11.726;2022-10-18T19:12:27;15.80;99.90
9537;DHT22;4807;48.024;11.726;2022-10-18T19:15:36;15.90;99.90
9537;DHT22;4807;48.024;11.726;2022-10-18T19:18:49;15.90;99.90
9537;DHT22;4807;48.024;11.726;2022-10-18T19:22:00;16.00;99.90
9537;DHT22;4807;48.024;11.726;2022-10-18T19:25:12;15.90;99.90
9537;DHT22;4807;48.024;11.726;2022-10-18T19:28:20;15.90;99.90
9537;DHT22;4807;48.024;11.726;2022-10-18T19:31:29;15.80;99.90
9537;DHT22;4807;48.024;11.726;2022-10-18T19:34:39;15.70;99.90
9537;DHT22;4807;48.024;11.726;2022-10-18T19:37:49;15.90;99.90
9537;DHT22;4807;48.024;11.726;2022-10-18T19:40:59;15.70;99.90
9537;DHT22;4807;48.024;11.726;2022-10-18T19:44:07;15.60;99.90
9537;DHT22;4807;48.024;11.726;2022-10-18T19:47:18;15.50;99.90
9537;DHT22;4807;48.024;11.726;2022-10-18T19:50:27;15.30;99.90
9537;DHT22;4807;48.024;11.726;2022-10-18T19:53:36;15.20;99.90
9537;DHT22;4807;48.024;11.726;2022-10-18T19:56:46;15.00;99.90
9537;DHT22;4807;48.024;11.726;2022-10-18T19:59:54;14.80;99.90
9537;DHT22;4807;48.024;11.726;2022-10-18T20:03:04;14.60;99.90
9537;DHT22;4807;48.024;11.726;2022-10-18T20:06:12;14.40;99.90
9537;DHT22;4807;48.024;11.726;2022-10-18T20:09:21;14.20;99.90
9537;DHT22;4807;48.024;11.726;2022-10-18T20:12:31;14.20;99.90
9537;DHT22;4807;48.024;11.726;2022-10-18T20:15:40;14.20;99.90
9537;DHT22;4807;48.024;11.726;2022-10-18T20:18:53;14.20;99.90
9537;DHT22;4807;48.024;11.726;2022-10-18T20:22:03;14.30;99.90
9537;DHT22;4807;48.024;11.726;2022-10-18T20:25:12;14.20;99.90
9537;DHT22;4807;48.024;11.726;2022-10-18T20:28:21;13.90;99.90
9537;DHT22;4807;48.024;11.726;2022-10-18T20:31:31;13.70;99.90
9537;DHT22;4807;48.024;11.726;2022-10-18T20:34:42;13.60;99.90
9537;DHT22;4807;48.024;11.726;2022-10-18T20:37:51;13.40;99.90
9537;DHT22;4807;48.024;11.726;2022-10-18T20:41:04;13.40;99.90
9537;DHT22;4807;48.024;11.726;2022-10-18T20:44:16;13.40;99.90
9537;DHT22;4807;48.024;11.726;2022-10-18T20:47:26;13.40;99.90
9537;DHT22;4807;48.024;11.726;2022-10-18T20:50:39;13.30;99.90
9537;DHT22;4807;48.024;11.726;2022-10-18T20:53:49;13.30;99.90
9537;DHT22;4807;48.024;11.726;2022-10-18T20:56:59;13.30;99.90
9537;DHT22;4807;48.024;11.726;2022-10-18T21:00:10;13.30;99.90
9537;DHT22;4807;48.024;11.726;2022-10-18T21:03:19;13.40;99.90
9537;DHT22;4807;48.024;11.726;2022-10-18T21:06:29;13.30;99.90
9537;DHT22;4807;48.024;11.726;2022-10-18T21:09:39;13.30;99.90
9537;DHT22;4807;48.024;11.726;2022-10-18T21:12:47;13.30;99.90
9537;DHT22;4807;48.024;11.726;2022-10-18T21:15:58;13.20;99.90